Time;durP1;ratioP1;P1;durP2;ratioP2;P2;SDS_P1;SDS_P2;PMS_P1;PMS_P2;Temp;Humidity;BMP_temperature;BMP_pressure;BME280_temperature;BME280_humidity;BME280_pressure;Samples;Min_cycle;Max_cycle;Signal;HPM_P1;HPM_P2
2024/02/18 00:00:55;;;;;;;0.40;0.40;;;;;;;1.69;86.85;98036.63;4962943;28;20521;-62
2024/02/18 00:03:22;;;;;;;0.30;0.30;;;;;;;1.91;86.91;98088.00;4962790;28;20557;-63
2024/02/18 00:05:49;;;;;;;0.40;0.40;;;;;;;1.37;87.13;98001.75;4978570;28;20429;-60
2024/02/18 00:08:16;;;;;;;0.40;0.40;;;;;;;1.82;87.57;98073.38;4982788;28;20580;-59
2024/02/18 00:10:43;;;;;;;0.30;0.30;;;;;;;1.56;88.57;98049.00;4980577;28;20062;-61
2024/02/18 00:13:10;;;;;;;0.40;0.40;;;;;;;1.81;88.33;98071.72;4982937;28;20449;-60
2024/02/18 00:15:36;;;;;;;0.30;0.30;;;;;;;1.86;88.64;98079.84;4982413;28;20062;-64
2024/02/18 00:18:04;;;;;;;0.30;0.30;;;;;;;1.77;89.08;98071.47;4982295;28;20141;-61
2024/02/18 00:20:31;;;;;;;0.30;0.30;;;;;;;1.82;90.37;98073.38;4983247;28;20069;-64
2024/02/18 00:22:57;;;;;;;0.30;0.30;;;;;;;1.85;90.91;98072.78;4985949;28;20051;-65
2024/02/18 00:25:24;;;;;;;0.40;0.40;;;;;;;1.50;90.53;98005.69;4986016;28;20135;-62
2024/02/18 00:27:51;;;;;;;0.40;0.40;;;;;;;1.92;90.12;98067.78;4985861;28;20133;-63
2024/02/18 00:30:18;;;;;;;0.30;0.30;;;;;;;1.83;89.77;98047.66;4985940;28;20042;-60
2024/02/18 00:32:46;;;;;;;0.30;0.30;;;;;;;1.28;89.79;97984.34;4986533;28;20050;-60
2024/02/18 00:35:13;;;;;;;0.30;0.30;;;;;;;1.83;90.03;98058.59;4984503;28;20516;-65
2024/02/18 00:37:40;;;;;;;0.30;0.30;;;;;;;1.84;90.39;98060.22;4985838;28;20054;-64
2024/02/18 00:40:08;;;;;;;0.30;0.30;;;;;;;1.48;90.31;98006.00;4985640;28;20050;-59
2024/02/18 00:42:35;;;;;;;0.40;0.40;;;;;;;1.85;90.42;98051.72;4985147;28;20138;-61
2024/02/18 00:45:02;;;;;;;0.40;0.40;;;;;;;1.90;89.65;98050.88;4985475;28;20057;-65
2024/02/18 00:47:29;;;;;;;0.30;0.30;;;;;;;1.86;89.81;98050.63;4984061;28;20050;-64
2024/02/18 00:49:56;;;;;;;0.30;0.30;;;;;;;1.43;90.54;97989.66;4985145;28;20119;-64
2024/02/18 00:52:23;;;;;;;0.35;0.35;;;;;;;1.81;90.51;98028.84;4985314;28;20050;-63
2024/02/18 00:54:49;;;;;;;0.30;0.30;;;;;;;1.69;89.36;98008.50;4983929;28;20053;-64
2024/02/18 00:57:16;;;;;;;0.40;0.40;;;;;;;0.99;89.92;97939.91;4985547;28;20050;-59
2024/02/18 00:59:43;;;;;;;0.30;0.30;;;;;;;1.58;90.91;98046.81;4985463;28;20100;-64
2024/02/18 01:02:10;;;;;;;0.30;0.30;;;;;;;1.46;91.34;98019.09;4985234;28;20936;-64
2024/02/18 01:04:36;;;;;;;0.30;0.30;;;;;;;1.65;90.50;98049.22;4984911;28;20073;-64
2024/02/18 01:07:04;;;;;;;0.30;0.30;;;;;;;1.64;89.75;98046.78;4966887;28;20051;-62
2024/02/18 01:09:31;;;;;;;0.40;0.40;;;;;;;1.13;90.86;98032.78;4964045;28;20125;-64
2024/02/18 01:11:58;;;;;;;0.40;0.40;;;;;;;1.54;90.38;98042.22;4964920;28;20050;-64
2024/02/18 01:14:25;;;;;;;0.30;0.30;;;;;;;1.45;90.96;98046.69;4966133;28;20141;-63
2024/02/18 01:16:52;;;;;;;0.30;0.30;;;;;;;1.11;90.65;97997.59;4966037;28;20055;-64
2024/02/18 01:19:20;;;;;;;0.30;0.30;;;;;;;0.89;90.32;97942.69;4965571;28;20065;-63
2024/02/18 01:21:47;;;;;;;0.40;0.40;;;;;;;1.42;90.70;98042.59;4965753;28;20058;-64
2024/02/18 01:24:14;;;;;;;0.30;0.30;;;;;;;1.44;89.94;98034.94;4963987;28;20086;-65
2024/02/18 01:26:40;;;;;;;0.30;0.30;;;;;;;1.43;88.57;98027.88;4964888;28;20572;-64
2024/02/18 01:29:08;;;;;;;0.30;0.30;;;;;;;1.13;88.53;98017.22;4965037;28;20524;-64
2024/02/18 01:31:35;;;;;;;0.30;0.30;;;;;;;1.01;87.96;97981.31;4964377;28;20051;-60
2024/02/18 01:34:02;;;;;;;0.40;0.40;;;;;;;-0.68;87.65;97709.19;4964983;28;20056;-64
2024/02/18 01:36:28;;;;;;;0.30;0.30;;;;;;;1.00;88.70;97976.16;4965068;28;20137;-61
2024/02/18 01:38:55;;;;;;;0.30;0.30;;;;;;;0.97;88.58;97991.19;4965630;28;20054;-59
2024/02/18 01:41:23;;;;;;;0.30;0.30;;;;;;;1.33;88.82;98036.16;4965153;28;20505;-64
2024/02/18 01:43:50;;;;;;;0.30;0.30;;;;;;;1.35;89.06;98031.22;4963552;28;20880;-64
2024/02/18 01:46:17;;;;;;;0.30;0.30;;;;;;;1.35;90.10;98031.22;4965331;28;20050;-61
2024/02/18 01:48:44;;;;;;;0.30;0.30;;;;;;;1.39;89.96;98034.19;4964878;28;20065;-59
2024/02/18 01:51:12;;;;;;;0.40;0.40;;;;;;;1.30;90.32;98028.53;4964038;28;20136;-64
2024/02/18 01:53:39;;;;;;;0.30;0.30;;;;;;;0.84;90.03;97926.38;4965209;28;20050;-60
2024/02/18 01:56:07;;;;;;;0.30;0.30;;;;;;;1.41;90.07;98024.59;4964793;28;20054;-64
2024/02/18 01:58:34;;;;;;;0.30;0.30;;;;;;;1.47;89.70;98028.91;4964907;28;20061;-64
2024/02/18 02:01:02;;;;;;;0.30;0.30;;;;;;;1.50;89.27;98017.41;4964265;28;20050;-65
2024/02/18 02:03:30;;;;;;;0.30;0.30;;;;;;;1.50;89.08;98022.88;4963025;28;20518;-64
2024/02/18 02:05:57;;;;;;;0.30;0.30;;;;;;;0.97;88.50;97983.00;4981700;28;20413;-64
2024/02/18 02:08:25;;;;;;;0.30;0.30;;;;;;;1.11;90.03;98021.34;4984065;28;20422;-60
2024/02/18 02:10:51;;;;;;;0.30;0.30;;;;;;;1.17;90.01;98023.72;4983909;28;20054;-59
2024/02/18 02:13:18;;;;;;;0.30;0.30;;;;;;;0.63;90.15;97952.22;4983979;28;20054;-60
2024/02/18 02:15:45;;;;;;;0.30;0.30;;;;;;;0.86;89.43;97973.28;4983757;28;20536;-63
2024/02/18 02:18:12;;;;;;;0.30;0.30;;;;;;;1.06;90.78;98015.94;4983884;28;20062;-61
2024/02/18 02:20:39;;;;;;;0.30;0.30;;;;;;;1.09;89.15;98016.16;4983934;28;20145;-64
2024/02/18 02:23:06;;;;;;;0.30;0.30;;;;;;;0.97;89.82;98007.53;4984106;28;20061;-64
2024/02/18 02:25:34;;;;;;;0.30;0.30;;;;;;;0.98;90.71;98008.38;4984522;28;20062;-64
2024/02/18 02:28:22;;;;;;;0.30;0.30;;;;;;;0.92;91.12;97977.59;4984053;28;20053;-65
2024/02/18 02:30:49;;;;;;;0.30;0.30;;;;;;;1.01;90.69;98002.34;4982057;28;20492;-64
2024/02/18 02:33:21;;;;;;;0.30;0.30;;;;;;;0.59;91.44;97929.31;4983971;28;20108;-64
2024/02/18 02:35:49;;;;;;;0.30;0.30;;;;;;;1.21;91.39;98007.63;4983647;28;20046;-58
2024/02/18 02:38:16;;;;;;;0.30;0.30;;;;;;;1.20;91.65;98012.25;4982129;28;20293;-59
2024/02/18 02:40:42;;;;;;;0.38;0.38;;;;;;;1.22;91.91;98012.78;4983603;28;20074;-60
2024/02/18 02:43:10;;;;;;;0.38;0.38;;;;;;;0.85;90.86;97936.22;4983011;28;20058;-59
2024/02/18 02:45:38;;;;;;;0.30;0.30;;;;;;;1.34;89.96;98017.88;4982047;28;20054;-64
2024/02/18 02:48:05;;;;;;;0.30;0.30;;;;;;;1.32;90.52;98001.78;4982116;28;20169;-59
2024/02/18 02:50:31;;;;;;;0.30;0.30;;;;;;;0.73;90.32;97908.47;4983259;28;20715;-63
2024/02/18 02:53:03;;;;;;;0.30;0.30;;;;;;;1.38;89.71;98008.81;4983769;28;20057;-59
2024/02/18 02:55:30;;;;;;;0.30;0.30;;;;;;;1.39;90.07;98021.34;4982428;28;20054;-63
2024/02/18 02:57:57;;;;;;;0.30;0.30;;;;;;;1.04;86.93;98027.09;4983767;28;20046;-59
2024/02/18 03:00:25;;;;;;;0.38;0.38;;;;;;;0.67;87.54;98017.84;4983450;28;20061;-59
2024/02/18 03:02:51;;;;;;;0.30;0.30;;;;;;;-0.39;87.56;97900.53;4983089;28;20050;-59
2024/02/18 03:05:18;;;;;;;0.30;0.30;;;;;;;0.24;88.04;97992.22;4981377;28;20065;-59
2024/02/18 03:07:45;;;;;;;0.30;0.30;;;;;;;0.61;87.29;98028.00;4981848;28;20055;-63
2024/02/18 03:10:12;;;;;;;0.30;0.30;;;;;;;0.47;87.45;98001.66;4983046;28;20061;-59
2024/02/18 03:12:40;;;;;;;0.30;0.30;;;;;;;0.47;87.37;98007.91;4981321;28;20580;-59
2024/02/18 03:15:07;;;;;;;0.30;0.30;;;;;;;0.60;86.85;98023.63;4982812;28;20082;-62
2024/02/18 03:17:37;;;;;;;0.30;0.30;;;;;;;0.62;88.11;98020.59;4981635;28;20066;-63
2024/02/18 03:20:07;;;;;;;0.32;0.32;;;;;;;0.57;86.49;98007.84;4982957;28;20517;-62
2024/02/18 03:22:34;;;;;;;0.30;0.30;;;;;;;0.59;87.60;98022.00;4983121;28;20136;-63
2024/02/18 03:25:01;;;;;;;0.30;0.30;;;;;;;0.18;89.21;97938.06;4983281;28;20058;-63
2024/02/18 03:27:28;;;;;;;0.30;0.30;;;;;;;0.80;89.09;98031.69;4983349;28;20349;-59
2024/02/18 03:29:55;;;;;;;0.30;0.30;;;;;;;0.82;88.93;98020.50;4963906;28;20510;-59
2024/02/18 03:32:22;;;;;;;0.30;0.30;;;;;;;0.75;88.73;98015.34;4962092;28;20055;-63
2024/02/18 03:34:49;;;;;;;0.30;0.30;;;;;;;1.16;88.37;98043.94;4963738;28;20055;-64
2024/02/18 03:37:16;;;;;;;0.30;0.30;;;;;;;1.07;88.72;98034.75;4963403;28;20057;-61
2024/02/18 03:39:43;;;;;;;0.30;0.30;;;;;;;1.15;90.09;98031.41;4961887;28;20134;-59
2024/02/18 03:42:09;;;;;;;0.30;0.30;;;;;;;0.98;89.81;98000.97;4963379;28;20051;-59
2024/02/18 03:44:36;;;;;;;0.30;0.30;;;;;;;1.25;89.59;98031.31;4963123;28;20079;-63
2024/02/18 03:47:03;;;;;;;0.32;0.32;;;;;;;1.05;89.80;98001.47;4963178;28;20580;-59
2024/02/18 03:49:30;;;;;;;0.30;0.30;;;;;;;1.37;89.38;98023.56;4962977;28;20062;-59
2024/02/18 03:51:57;;;;;;;0.30;0.30;;;;;;;1.44;88.92;98031.41;4962012;28;20533;-63
2024/02/18 03:54:26;;;;;;;0.35;0.35;;;;;;;1.62;89.22;98027.13;4963086;28;20050;-59
2024/02/18 03:56:52;;;;;;;0.40;0.40;;;;;;;1.21;88.56;97964.78;4966734;28;20053;-63
2024/02/18 03:59:19;;;;;;;0.30;0.30;;;;;;;1.19;89.08;97975.16;4967219;28;20057;-60
2024/02/18 04:01:46;;;;;;;0.32;0.32;;;;;;;1.63;88.27;98015.13;4967153;28;20522;-64
2024/02/18 04:04:14;;;;;;;0.40;0.40;;;;;;;1.51;88.51;98019.06;4966183;28;20058;-63
2024/02/18 04:06:41;;;;;;;0.30;0.30;;;;;;;1.52;89.65;98014.38;4966151;28;20051;-63
2024/02/18 04:09:08;;;;;;;0.30;0.30;;;;;;;1.75;90.28;98031.91;4967223;28;20573;-60
2024/02/18 04:11:35;;;;;;;0.32;0.32;;;;;;;1.93;90.46;98031.19;4967285;28;20063;-63
2024/02/18 04:14:01;;;;;;;0.30;0.30;;;;;;;1.83;91.21;98025.81;4966954;28;20149;-64
2024/02/18 04:16:28;;;;;;;0.30;0.30;;;;;;;2.11;91.40;98033.13;4966646;28;20066;-59
2024/02/18 04:18:55;;;;;;;0.32;0.32;;;;;;;1.22;90.83;98034.59;4966284;28;20085;-64
2024/02/18 04:21:22;;;;;;;0.30;0.30;;;;;;;1.56;92.12;98021.72;4766240;28;5001011;-67
2024/02/18 04:23:49;;;;;;;0.30;0.30;;;;;;;1.80;91.37;98027.22;4966510;28;20270;-64
2024/02/18 04:26:17;;;;;;;0.30;0.30;;;;;;;1.79;90.56;97997.47;4966293;28;20429;-60
2024/02/18 04:28:44;;;;;;;0.40;0.40;;;;;;;2.03;89.94;98025.56;4966243;28;20538;-60
2024/02/18 04:31:11;;;;;;;0.40;0.40;;;;;;;2.04;89.83;98029.94;4966118;28;20062;-61
2024/02/18 04:33:38;;;;;;;0.30;0.30;;;;;;;2.10;89.26;98028.78;4966490;28;20456;-64
2024/02/18 04:36:05;;;;;;;0.32;0.32;;;;;;;2.06;88.71;98031.28;4966552;28;20523;-59
2024/02/18 04:38:32;;;;;;;0.40;0.40;;;;;;;1.37;89.81;97925.31;4964898;28;20043;-63
2024/02/18 04:40:58;;;;;;;0.32;0.32;;;;;;;1.89;89.75;98008.25;4964935;28;20070;-64
2024/02/18 04:43:25;;;;;;;0.30;0.30;;;;;;;2.14;90.63;98021.59;4964836;28;20488;-64
2024/02/18 04:45:52;;;;;;;0.40;0.40;;;;;;;1.62;90.94;97942.47;4966414;28;20055;-60
2024/02/18 04:48:18;;;;;;;0.30;0.30;;;;;;;2.21;91.37;98016.63;4966217;28;20055;-64
2024/02/18 04:50:46;;;;;;;0.30;0.30;;;;;;;2.21;91.24;98016.63;4966150;28;20144;-59
2024/02/18 04:53:13;;;;;;;0.40;0.40;;;;;;;1.54;90.51;97920.19;4967132;28;20065;-64
2024/02/18 04:55:39;;;;;;;0.40;0.40;;;;;;;2.15;90.55;98026.00;4965619;28;20461;-60
2024/02/18 04:58:06;;;;;;;0.40;0.40;;;;;;;1.58;91.22;97919.63;4965948;28;20137;-59
2024/02/18 05:00:33;;;;;;;0.30;0.30;;;;;;;2.16;91.97;98019.41;4965940;28;20505;-60
2024/02/18 05:03:00;;;;;;;0.40;0.40;;;;;;;2.18;91.80;98006.28;4965797;28;20132;-65
2024/02/18 05:05:27;;;;;;;0.40;0.40;;;;;;;2.09;92.69;98018.94;4964157;28;20169;-64
2024/02/18 05:07:54;;;;;;;0.40;0.40;;;;;;;2.10;92.45;98015.13;4966004;28;20055;-64
2024/02/18 05:10:21;;;;;;;0.32;0.32;;;;;;;2.09;93.74;98027.13;4965443;28;20050;-64
2024/02/18 05:12:47;;;;;;;0.40;0.40;;;;;;;1.98;94.03;98020.16;4965529;28;20078;-64
2024/02/18 05:15:14;;;;;;;0.30;0.30;;;;;;;2.06;94.81;98014.06;4965661;28;20050;-59
2024/02/18 05:17:41;;;;;;;0.30;0.30;;;;;;;1.98;95.14;98017.44;4965450;28;20059;-60
2024/02/18 05:20:09;;;;;;;0.40;0.40;;;;;;;1.84;95.82;98011.03;4965448;28;20050;-63
2024/02/18 05:22:40;;;;;;;0.30;0.30;;;;;;;1.92;95.58;98008.50;4965981;28;20055;-63
2024/02/18 05:25:07;;;;;;;0.30;0.30;;;;;;;2.07;97.30;98023.91;4965292;28;20082;-59
2024/02/18 05:27:34;;;;;;;0.30;0.30;;;;;;;2.24;96.97;98016.84;4965447;28;20497;-59
2024/02/18 05:30:01;;;;;;;0.38;0.38;;;;;;;2.28;96.79;98028.00;4965778;28;20057;-61
2024/02/18 05:32:28;;;;;;;0.32;0.32;;;;;;;2.35;97.84;98025.72;4965263;28;20156;-64
2024/02/18 05:34:54;;;;;;;0.40;0.40;;;;;;;1.85;98.39;97963.53;4965207;28;20121;-63
2024/02/18 05:37:21;;;;;;;0.40;0.40;;;;;;;2.48;100.00;98027.75;4965201;28;20133;-63
2024/02/18 05:39:48;;;;;;;0.30;0.30;;;;;;;2.56;100.00;98007.94;4963536;28;20310;-64
2024/02/18 05:42:15;;;;;;;0.30;0.30;;;;;;;2.70;100.00;98030.69;4963569;28;20086;-61
2024/02/18 05:44:42;;;;;;;0.40;0.40;;;;;;;2.72;100.00;98017.53;4964841;28;20058;-60
2024/02/18 05:47:09;;;;;;;0.40;0.40;;;;;;;2.40;100.00;97938.19;4964827;28;20090;-59
2024/02/18 05:49:36;;;;;;;0.40;0.40;;;;;;;3.07;99.38;98036.13;4964810;28;20058;-64
2024/02/18 05:52:10;;;;;;;0.40;0.40;;;;;;;3.16;99.01;98033.56;4963847;28;20176;-64
2024/02/18 05:54:37;;;;;;;0.40;0.40;;;;;;;3.30;94.92;98046.19;4963366;28;20055;-64
2024/02/18 05:57:05;;;;;;;0.40;0.40;;;;;;;2.56;94.79;97947.78;4962514;28;20134;-62
2024/02/18 05:59:32;;;;;;;0.40;0.40;;;;;;;3.34;93.44;98041.72;4963742;28;20498;-59
2024/02/18 06:01:59;;;;;;;0.40;0.40;;;;;;;3.30;92.17;98045.34;4964247;28;20050;-61
2024/02/18 06:04:26;;;;;;;0.30;0.30;;;;;;;3.03;92.03;97996.81;4964460;28;20093;-60
2024/02/18 06:06:53;;;;;;;0.40;0.40;;;;;;;3.43;91.82;98050.88;4982222;28;20078;-64
2024/02/18 06:09:20;;;;;;;0.40;0.40;;;;;;;3.57;91.11;98072.84;4983641;28;20142;-62
2024/02/18 06:11:48;;;;;;;0.50;0.50;;;;;;;3.71;91.49;98059.97;4983599;28;20165;-60
2024/02/18 06:14:15;;;;;;;0.40;0.40;;;;;;;3.27;91.40;97970.13;4982768;28;20054;-60
2024/02/18 06:16:42;;;;;;;0.40;0.40;;;;;;;3.81;91.01;98024.97;4983700;28;20050;-60
2024/02/18 06:19:09;;;;;;;0.50;0.50;;;;;;;4.00;89.77;98050.38;4982502;28;20081;-61
2024/02/18 06:21:41;;;;;;;0.40;0.40;;;;;;;3.89;91.31;98050.88;4983375;28;20120;-62
2024/02/18 06:24:08;;;;;;;0.45;0.45;;;;;;;3.91;91.11;98051.38;4983178;28;20074;-63
2024/02/18 06:26:39;;;;;;;0.43;0.43;;;;;;;3.33;90.95;97971.66;4983492;28;20077;-61
2024/02/18 06:29:05;;;;;;;0.40;0.40;;;;;;;3.77;90.42;98062.34;4981892;28;20153;-61
2024/02/18 06:31:32;;;;;;;0.47;0.47;;;;;;;3.35;90.39;98005.00;4983377;28;20493;-62
2024/02/18 06:33:59;;;;;;;0.40;0.40;;;;;;;3.53;91.14;98071.78;4983296;28;20600;-60
2024/02/18 06:36:27;;;;;;;0.40;0.40;;;;;;;3.67;89.88;98070.72;4983637;28;20061;-61
2024/02/18 06:38:54;;;;;;;0.40;0.40;;;;;;;3.79;89.50;98062.84;4983402;28;20050;-61
2024/02/18 06:41:20;;;;;;;0.40;0.40;;;;;;;3.78;90.26;98054.94;4983447;28;20159;-61
2024/02/18 06:43:47;;;;;;;0.50;0.50;;;;;;;3.43;90.21;98004.31;4983410;28;20055;-61
2024/02/18 06:46:14;;;;;;;0.40;0.40;;;;;;;3.67;89.15;98045.25;4983270;28;20057;-60
2024/02/18 06:48:41;;;;;;;0.40;0.40;;;;;;;3.72;88.24;98054.19;4982638;28;20432;-60
2024/02/18 06:51:08;;;;;;;0.40;0.40;;;;;;;3.36;88.04;98012.13;4981818;28;20058;-64
2024/02/18 06:53:35;;;;;;;0.40;0.40;;;;;;;3.47;88.33;98021.78;4983353;28;20524;-63
2024/02/18 06:56:03;;;;;;;0.40;0.40;;;;;;;3.06;89.39;97971.56;4981458;28;20053;-60
2024/02/18 06:58:30;;;;;;;0.40;0.40;;;;;;;3.74;89.13;98059.38;4981815;28;20042;-62
2024/02/18 07:00:57;;;;;;;0.40;0.40;;;;;;;3.91;89.17;98057.69;4983377;28;20137;-63
2024/02/18 07:03:24;;;;;;;0.40;0.40;;;;;;;3.94;88.96;98059.00;4983513;28;20047;-65
2024/02/18 07:05:51;;;;;;;0.40;0.40;;;;;;;4.12;87.40;98050.69;4983327;28;20054;-64
2024/02/18 07:08:18;;;;;;;0.40;0.40;;;;;;;4.20;88.10;98060.97;4983580;28;20595;-61
2024/02/18 07:10:45;;;;;;;0.40;0.40;;;;;;;4.27;87.41;98044.06;4981331;28;20058;-61
2024/02/18 07:13:12;;;;;;;0.40;0.40;;;;;;;4.58;85.54;98069.78;4983245;28;20136;-63
2024/02/18 07:15:39;;;;;;;0.40;0.40;;;;;;;4.06;87.76;98071.09;4983114;28;20050;-63
2024/02/18 07:18:05;;;;;;;0.40;0.40;;;;;;;4.10;88.11;98027.44;4983379;28;20054;-64
2024/02/18 07:20:32;;;;;;;0.40;0.40;;;;;;;4.68;87.27;98049.53;4983647;28;20153;-63
2024/02/18 07:23:00;;;;;;;0.47;0.47;;;;;;;4.93;85.00;98048.97;4983356;28;20062;-64
2024/02/18 07:25:27;;;;;;;0.50;0.50;;;;;;;5.17;83.99;98060.50;4982868;28;20062;-64
2024/02/18 07:27:54;;;;;;;0.50;0.50;;;;;;;5.45;83.65;98054.56;4982015;28;20069;-64
2024/02/18 07:30:20;;;;;;;0.50;0.50;;;;;;;5.67;82.68;98053.75;4984286;28;20252;-64
2024/02/18 07:32:47;;;;;;;0.50;0.50;;;;;;;4.49;86.31;98031.28;4986707;28;20054;-60
2024/02/18 07:35:14;;;;;;;0.50;0.50;;;;;;;5.19;86.66;98055.47;4986582;28;20120;-64
2024/02/18 07:37:42;;;;;;;0.50;0.50;;;;;;;5.05;87.36;98065.69;4986743;28;20415;-64
2024/02/18 07:40:09;;;;;;;0.50;0.50;;;;;;;4.31;91.12;98015.75;4986494;28;20042;-60
2024/02/18 07:42:37;;;;;;;0.40;0.40;;;;;;;4.39;91.19;98052.63;4985434;28;20069;-63
2024/02/18 07:45:05;;;;;;;0.40;0.40;;;;;;;4.48;94.06;98043.38;4986597;28;20106;-63
2024/02/18 07:47:32;;;;;;;0.40;0.40;;;;;;;4.87;92.07;98041.97;4987107;28;20046;-64
2024/02/18 07:49:58;;;;;;;0.47;0.47;;;;;;;4.90;90.63;98046.84;4986508;28;20058;-64
2024/02/18 07:52:25;;;;;;;0.50;0.50;;;;;;;4.61;94.25;98048.03;4986639;28;20058;-61
2024/02/18 07:54:52;;;;;;;0.50;0.50;;;;;;;4.55;92.57;97997.09;4986445;28;20533;-63
2024/02/18 07:57:20;;;;;;;0.50;0.50;;;;;;;5.28;91.44;98039.91;4986595;28;20576;-64
2024/02/18 07:59:47;;;;;;;0.50;0.50;;;;;;;5.49;89.00;98022.59;4986484;28;20058;-63
2024/02/18 08:02:14;;;;;;;0.45;0.45;;;;;;;5.08;90.38;98040.38;4986432;28;20516;-63
2024/02/18 08:04:40;;;;;;;0.50;0.50;;;;;;;5.42;89.60;98024.16;4984514;28;20058;-60
2024/02/18 08:07:08;;;;;;;0.50;0.50;;;;;;;5.75;88.87;98022.75;4986735;28;20058;-61
2024/02/18 08:09:35;;;;;;;0.50;0.50;;;;;;;6.08;88.07;98021.31;4986720;28;20583;-61
2024/02/18 08:12:01;;;;;;;0.50;0.50;;;;;;;6.09;83.94;97956.91;4985051;28;20046;-61
2024/02/18 08:14:28;;;;;;;0.50;0.50;;;;;;;6.53;83.75;98008.19;4979796;28;20058;-63
2024/02/18 08:16:56;;;;;;;0.57;0.57;;;;;;;6.64;83.54;98026.81;4965388;28;20353;-61
2024/02/18 08:19:23;;;;;;;0.60;0.60;;;;;;;6.70;82.21;98031.03;4966124;28;20162;-64
2024/02/18 08:21:51;;;;;;;0.55;0.55;;;;;;;6.68;81.69;97989.28;4966944;28;20149;-61
2024/02/18 08:24:18;;;;;;;0.60;0.60;;;;;;;7.26;81.68;98008.88;4965019;28;20062;-64
2024/02/18 08:26:45;;;;;;;0.55;0.55;;;;;;;7.91;79.84;98007.78;4966326;28;20599;-62
2024/02/18 08:29:12;;;;;;;0.70;0.70;;;;;;;8.28;77.04;98001.50;4966208;28;20544;-62
2024/02/18 08:31:38;;;;;;;0.68;0.68;;;;;;;8.75;74.68;98014.06;4966164;28;20589;-64
2024/02/18 08:34:05;;;;;;;0.70;0.70;;;;;;;9.19;73.63;97996.84;4964637;28;20055;-61
2024/02/18 08:36:32;;;;;;;0.80;0.80;;;;;;;9.82;71.50;98010.22;4964911;28;20092;-64
2024/02/18 08:38:59;;;;;;;0.80;0.80;;;;;;;10.03;68.92;97961.13;4965052;28;20133;-64
2024/02/18 08:41:26;;;;;;;0.80;0.80;;;;;;;10.04;67.66;97973.81;4964059;28;20113;-61
2024/02/18 08:43:53;;;;;;;0.80;0.80;;;;;;;10.45;66.52;97936.81;4965821;28;20055;-62
2024/02/18 08:46:19;;;;;;;0.90;0.90;;;;;;;11.26;64.64;97997.50;4964808;28;20047;-65
2024/02/18 08:48:46;;;;;;;1.00;1.00;;;;;;;11.56;63.27;97998.78;4966141;28;20072;-62
2024/02/18 08:51:13;;;;;;;1.00;1.00;;;;;;;11.56;63.28;98001.56;4966427;28;20560;-65
2024/02/18 08:53:41;;;;;;;0.90;0.90;;;;;;;11.88;63.94;97997.75;4966337;28;20407;-62
2024/02/18 08:56:09;;;;;;;1.00;1.00;;;;;;;12.29;62.06;97991.69;4966492;28;20109;-65
2024/02/18 08:58:37;;;;;;;0.90;0.90;;;;;;;12.33;60.47;97994.56;4965571;28;20101;-63
2024/02/18 09:01:04;;;;;;;1.00;1.00;;;;;;;12.31;60.80;98006.06;4965792;28;20145;-63
2024/02/18 09:03:31;;;;;;;1.00;1.00;;;;;;;12.24;60.60;98000.28;4964403;28;20076;-63
2024/02/18 09:05:58;;;;;;;1.00;1.00;;;;;;;12.08;61.11;98002.25;4965337;28;20094;-60
2024/02/18 09:08:25;;;;;;;1.10;1.10;;;;;;;11.86;62.67;97977.84;4965647;28;20055;-60
2024/02/18 09:10:54;;;;;;;1.00;1.00;;;;;;;11.68;62.78;97999.56;4965730;28;20061;-60
2024/02/18 09:13:21;;;;;;;1.00;1.00;;;;;;;11.47;63.54;97978.72;4965599;28;20058;-60
2024/02/18 09:15:49;;;;;;;1.00;1.00;;;;;;;11.44;64.43;97983.03;4965873;28;20129;-60
2024/02/18 09:18:17;;;;;;;0.90;0.90;;;;;;;11.59;64.18;97973.94;4965659;28;20117;-61
2024/02/18 09:20:44;;;;;;;0.93;0.93;;;;;;;12.02;62.91;98006.47;4965444;28;20055;-62
2024/02/18 09:23:11;;;;;;;0.90;0.90;;;;;;;11.68;62.81;97971.03;4965048;28;20102;-64
2024/02/18 09:25:38;;;;;;;0.93;0.93;;;;;;;12.25;62.69;98001.91;4964944;28;20058;-63
2024/02/18 09:28:06;;;;;;;1.05;1.05;;;;;;;12.65;62.23;97998.94;4963715;28;20473;-64
2024/02/18 09:30:33;;;;;;;0.93;0.93;;;;;;;12.58;61.70;97996.81;4965378;28;20058;-60
2024/02/18 09:33:00;;;;;;;1.10;1.10;;;;;;;12.57;60.75;97945.16;4964035;28;20109;-64
2024/02/18 09:35:27;;;;;;;1.02;1.02;;;;;;;12.95;59.64;97948.03;4965636;28;20051;-61
2024/02/18 09:37:54;;;;;;;1.00;1.00;;;;;;;13.21;58.94;97989.97;4965525;28;20047;-62
2024/02/18 09:40:22;;;;;;;1.08;1.08;;;;;;;12.64;60.66;97998.16;4965853;28;20145;-61
2024/02/18 09:42:53;;;;;;;1.02;1.02;;;;;;;12.32;60.76;97965.16;4965694;28;20077;-60
2024/02/18 09:45:32;;;;;;;1.00;1.00;;;;;;;12.32;60.95;97948.50;4965040;28;20105;-62
2024/02/18 09:48:01;;;;;;;1.00;1.00;;;;;;;12.36;60.78;97914.06;4965300;28;20153;-65
2024/02/18 09:50:33;;;;;;;1.02;1.02;;;;;;;12.25;61.80;97988.00;4964904;28;20050;-61
2024/02/18 09:53:02;;;;;;;1.10;1.10;;;;;;;12.70;60.91;97991.13;4963020;28;20050;-66
2024/02/18 09:55:29;;;;;;;1.00;1.00;;;;;;;12.67;59.80;97993.81;4963747;28;20071;-65
2024/02/18 09:57:55;;;;;;;1.00;1.00;;;;;;;11.21;59.18;97723.22;4963954;28;20074;-60
2024/02/18 10:00:22;;;;;;;1.00;1.00;;;;;;;12.85;58.98;97943.03;4964838;28;20051;-62
2024/02/18 10:02:51;;;;;;;1.10;1.10;;;;;;;13.17;58.25;97977.13;4964215;28;20082;-65
2024/02/18 10:05:18;;;;;;;1.05;1.05;;;;;;;13.39;57.56;97985.56;4966712;28;20453;-65
2024/02/18 10:08:02;;;;;;;1.10;1.10;;;;;;;13.57;56.11;97975.63;4984707;28;20050;-62
2024/02/18 10:10:35;;;;;;;1.20;1.20;;;;;;;13.59;56.64;97976.03;4984204;28;20137;-63
2024/02/18 10:13:04;;;;;;;1.20;1.20;;;;;;;13.08;56.92;97882.78;4984314;28;20425;-65
2024/02/18 10:15:31;;;;;;;1.10;1.10;;;;;;;13.97;56.51;97966.03;4983917;28;20145;-65
2024/02/18 10:17:58;;;;;;;1.10;1.10;;;;;;;13.88;55.33;97959.91;4983701;28;20076;-61
2024/02/18 10:20:30;;;;;;;1.10;1.10;;;;;;;14.15;54.38;97964.38;4984290;28;20046;-64
2024/02/18 10:22:57;;;;;;;1.40;1.40;;;;;;;14.18;53.46;97967.22;4983814;28;20054;-60
2024/02/18 10:25:23;;;;;;;1.30;1.30;;;;;;;14.22;53.59;97962.53;4983450;28;20054;-65
2024/02/18 10:27:56;;;;;;;1.20;1.20;;;;;;;14.16;53.76;97957.63;4983579;28;20433;-63
2024/02/18 10:30:22;;;;;;;1.30;1.30;;;;;;;14.44;53.85;97958.97;4983647;28;20136;-65
2024/02/18 10:32:49;;;;;;;1.20;1.20;;;;;;;14.64;51.81;97951.28;4983783;28;20073;-60
2024/02/18 10:35:16;;;;;;;1.20;1.20;;;;;;;14.84;51.56;97922.13;4982064;28;20161;-64
2024/02/18 10:37:43;;;;;;;1.40;1.40;;;;;;;15.58;50.19;97945.47;4984009;28;20050;-64
2024/02/18 10:40:19;;;;;;;1.40;1.40;;;;;;;15.53;50.13;97949.41;4983656;28;20532;-66
2024/02/18 10:42:51;;;;;;;1.50;1.50;;;;;;;15.75;48.96;97934.50;4984716;28;20568;-65
2024/02/18 10:45:20;;;;;;;1.40;1.40;;;;;;;16.63;47.39;97912.94;4982815;28;20054;-64
2024/02/18 10:47:56;;;;;;;1.60;1.60;;;;;;;17.05;45.53;97929.22;4983370;28;20054;-62
2024/02/18 10:50:26;;;;;;;1.45;1.45;;;;;;;16.68;45.65;97925.81;4958986;28;20081;-65
2024/02/18 10:53:17;;;;;;;1.60;1.60;;;;;;;15.95;45.92;97859.66;4983745;28;20057;-64
2024/02/18 10:56:04;;;;;;;1.60;1.60;;;;;;;16.53;45.92;97925.66;4997838;28;20129;-62
2024/02/18 10:58:43;;;;;;;1.60;1.60;;;;;;;16.63;45.47;97928.97;4983717;28;20477;-64
2024/02/18 11:01:14;;;;;;;1.50;1.50;;;;;;;16.45;45.83;97929.59;4983553;28;20050;-64
2024/02/18 11:03:54;;;;;;;1.70;1.70;;;;;;;16.08;46.00;97931.63;4982930;28;20058;-64
2024/02/18 11:06:21;;;;;;;1.50;1.50;;;;;;;16.19;46.21;97924.16;4983527;28;20141;-65
2024/02/18 11:08:51;;;;;;;1.60;1.60;;;;;;;16.32;46.00;97891.94;4981925;28;20089;-64
2024/02/18 11:11:18;;;;;;;1.67;1.67;;;;;;;16.74;44.37;97924.25;4983213;28;20054;-63
2024/02/18 11:13:46;;;;;;;1.60;1.60;;;;;;;16.53;43.41;97908.88;4982391;28;20432;-61
2024/02/18 11:16:16;;;;;;;1.50;1.50;;;;;;;16.03;43.93;97923.59;4983156;28;20050;-62
2024/02/18 11:18:44;;;;;;;1.73;1.73;;;;;;;16.05;43.96;97881.28;4982835;28;20078;-63
2024/02/18 11:21:14;;;;;;;1.60;1.60;;;;;;;16.18;43.85;97880.63;4981378;28;20182;-60
2024/02/18 11:23:55;;;;;;;1.70;1.70;;;;;;;16.56;42.95;97936.09;4981153;28;20055;-63
2024/02/18 11:26:22;;;;;;;1.60;1.60;;;;;;;16.39;42.58;97911.53;4982477;28;20137;-61
2024/02/18 11:28:49;;;;;;;1.40;1.40;;;;;;;14.47;43.06;97678.59;4982111;28;20065;-65
2024/02/18 11:31:25;;;;;;;1.75;1.75;;;;;;;15.98;43.39;97898.78;4983640;28;20456;-63
2024/02/18 11:33:53;;;;;;;1.50;1.50;;;;;;;16.52;42.79;97912.88;4981712;28;20057;-63
2024/02/18 11:36:23;;;;;;;1.30;1.30;;;;;;;15.71;42.05;97916.09;4982701;28;20042;-64
2024/02/18 11:38:53;;;;;;;1.40;1.40;;;;;;;16.27;41.73;97909.06;4982628;28;20141;-65
2024/02/18 11:41:29;;;;;;;1.40;1.40;;;;;;;16.30;41.72;97908.28;4982831;28;20061;-60